New Bridgeville, Pennsylvania
Current Conditions -  °F | °C
As of 11:53 AM on Monday 22 Dec 2014 (Local Time) from KTHV Reporting Station
Haze Haze  
Wind Chill: 31°   Ceiling: 1700
Heat Index: 31°   Visibility: 4mi
Dew Point: 26°   Wind: 0mph
Humidity: 82%   Direction: NA
Pressure: 30.26"   Gusts: NA
Location:  39.8974°N, 76.608°W
Report Text: KTHV 221653Z AUTO 00000KT 4SM HZ OVC017 M01/M03 A3026 RMK AO2 SLP257 T10061033
Loading
Personal Weather Stations






























Interactive Weather Map New forecast layout! Learn more

10-Day Weather Forecast

Advertisements
Track Severe Weather on mobile